sensor_id;sensor_type;location;lat;lon;timestamp;P1;durP1;ratioP1;P2;durP2;ratioP2
29280;SDS011;25048;49.590;11.026;2024-01-06T00:01:26;12.20;;;6.50;;
29280;SDS011;25048;49.590;11.026;2024-01-06T00:03:53;11.60;;;6.87;;
29280;SDS011;25048;49.590;11.026;2024-01-06T00:06:21;14.53;;;7.60;;
29280;SDS011;25048;49.590;11.026;2024-01-06T00:08:48;17.40;;;7.03;;
29280;SDS011;25048;49.590;11.026;2024-01-06T00:11:17;14.27;;;6.93;;
29280;SDS011;25048;49.590;11.026;2024-01-06T00:13:45;11.60;;;7.00;;
29280;SDS011;25048;49.590;11.026;2024-01-06T00:16:13;9.73;;;5.80;;
29280;SDS011;25048;49.590;11.026;2024-01-06T00:18:46;13.73;;;7.10;;
29280;SDS011;25048;49.590;11.026;2024-01-06T00:21:14;17.77;;;7.30;;
29280;SDS011;25048;49.590;11.026;2024-01-06T00:23:42;10.87;;;5.10;;
29280;SDS011;25048;49.590;11.026;2024-01-06T00:26:09;10.67;;;5.57;;
29280;SDS011;25048;49.590;11.026;2024-01-06T00:28:38;8.93;;;4.90;;
29280;SDS011;25048;49.590;11.026;2024-01-06T00:31:06;9.80;;;5.47;;
29280;SDS011;25048;49.590;11.026;2024-01-06T00:33:33;9.07;;;4.90;;
29280;SDS011;25048;49.590;11.026;2024-01-06T00:36:01;9.90;;;5.53;;
29280;SDS011;25048;49.590;11.026;2024-01-06T00:38:28;11.90;;;5.47;;
29280;SDS011;25048;49.590;11.026;2024-01-06T00:40:56;9.30;;;5.30;;
29280;SDS011;25048;49.590;11.026;2024-01-06T00:43:24;10.87;;;6.37;;
29280;SDS011;25048;49.590;11.026;2024-01-06T00:45:51;10.40;;;5.67;;
29280;SDS011;25048;49.590;11.026;2024-01-06T00:48:20;12.20;;;5.60;;
29280;SDS011;25048;49.590;11.026;2024-01-06T00:50:47;10.40;;;5.87;;
29280;SDS011;25048;49.590;11.026;2024-01-06T00:53:15;12.43;;;5.77;;
29280;SDS011;25048;49.590;11.026;2024-01-06T00:55:42;9.67;;;5.23;;
29280;SDS011;25048;49.590;11.026;2024-01-06T00:58:10;10.17;;;5.63;;
29280;SDS011;25048;49.590;11.026;2024-01-06T01:00:38;10.23;;;5.50;;
29280;SDS011;25048;49.590;11.026;2024-01-06T01:03:06;12.10;;;6.23;;
29280;SDS011;25048;49.590;11.026;2024-01-06T01:05:35;9.47;;;5.10;;
29280;SDS011;25048;49.590;11.026;2024-01-06T01:08:03;7.83;;;4.87;;
29280;SDS011;25048;49.590;11.026;2024-01-06T01:10:30;8.10;;;5.77;;
29280;SDS011;25048;49.590;11.026;2024-01-06T01:12:59;12.30;;;6.40;;
29280;SDS011;25048;49.590;11.026;2024-01-06T01:15:26;12.03;;;5.10;;
29280;SDS011;25048;49.590;11.026;2024-01-06T01:17:54;9.30;;;6.00;;
29280;SDS011;25048;49.590;11.026;2024-01-06T01:20:21;13.87;;;6.87;;
29280;SDS011;25048;49.590;11.026;2024-01-06T01:22:49;12.00;;;6.77;;
29280;SDS011;25048;49.590;11.026;2024-01-06T01:25:17;11.47;;;6.87;;
29280;SDS011;25048;49.590;11.026;2024-01-06T01:27:44;15.43;;;7.53;;
29280;SDS011;25048;49.590;11.026;2024-01-06T01:30:13;14.40;;;7.80;;
29280;SDS011;25048;49.590;11.026;2024-01-06T01:32:40;14.30;;;7.60;;
29280;SDS011;25048;49.590;11.026;2024-01-06T01:35:08;14.33;;;7.40;;
29280;SDS011;25048;49.590;11.026;2024-01-06T01:37:37;12.90;;;7.03;;
29280;SDS011;25048;49.590;11.026;2024-01-06T01:40:05;11.50;;;6.93;;
29280;SDS011;25048;49.590;11.026;2024-01-06T01:42:33;11.27;;;6.67;;
29280;SDS011;25048;49.590;11.026;2024-01-06T01:45:00;14.27;;;7.20;;
29280;SDS011;25048;49.590;11.026;2024-01-06T01:47:28;18.47;;;7.20;;
29280;SDS011;25048;49.590;11.026;2024-01-06T01:49:56;16.57;;;7.33;;
29280;SDS011;25048;49.590;11.026;2024-01-06T01:52:24;10.50;;;6.53;;
29280;SDS011;25048;49.590;11.026;2024-01-06T01:54:51;11.50;;;7.00;;
29280;SDS011;25048;49.590;11.026;2024-01-06T01:57:20;11.83;;;6.50;;
29280;SDS011;25048;49.590;11.026;2024-01-06T01:59:49;12.13;;;6.87;;
29280;SDS011;25048;49.590;11.026;2024-01-06T02:02:18;14.73;;;6.87;;
29280;SDS011;25048;49.590;11.026;2024-01-06T02:04:46;14.20;;;7.07;;
29280;SDS011;25048;49.590;11.026;2024-01-06T02:07:14;10.50;;;6.60;;
29280;SDS011;25048;49.590;11.026;2024-01-06T02:09:42;12.37;;;6.73;;
29280;SDS011;25048;49.590;11.026;2024-01-06T02:12:09;14.47;;;7.03;;
29280;SDS011;25048;49.590;11.026;2024-01-06T02:14:37;13.50;;;6.43;;
29280;SDS011;25048;49.590;11.026;2024-01-06T02:17:04;13.50;;;6.67;;
29280;SDS011;25048;49.590;11.026;2024-01-06T02:19:32;13.37;;;6.80;;
29280;SDS011;25048;49.590;11.026;2024-01-06T02:21:59;13.07;;;6.90;;
29280;SDS011;25048;49.590;11.026;2024-01-06T02:24:27;13.87;;;6.90;;
29280;SDS011;25048;49.590;11.026;2024-01-06T02:26:54;15.03;;;7.47;;
29280;SDS011;25048;49.590;11.026;2024-01-06T02:29:22;10.70;;;5.90;;
29280;SDS011;25048;49.590;11.026;2024-01-06T02:31:50;17.43;;;7.53;;
29280;SDS011;25048;49.590;11.026;2024-01-06T02:34:17;16.30;;;6.17;;
29280;SDS011;25048;49.590;11.026;2024-01-06T02:36:45;11.37;;;6.47;;
29280;SDS011;25048;49.590;11.026;2024-01-06T02:39:12;15.03;;;6.70;;
29280;SDS011;25048;49.590;11.026;2024-01-06T02:41:40;13.70;;;6.83;;
29280;SDS011;25048;49.590;11.026;2024-01-06T02:44:09;13.83;;;6.43;;
29280;SDS011;25048;49.590;11.026;2024-01-06T02:46:36;13.93;;;7.10;;
29280;SDS011;25048;49.590;11.026;2024-01-06T02:49:07;12.53;;;7.20;;
29280;SDS011;25048;49.590;11.026;2024-01-06T02:51:34;11.23;;;6.23;;
29280;SDS011;25048;49.590;11.026;2024-01-06T02:54:02;13.80;;;7.37;;
29280;SDS011;25048;49.590;11.026;2024-01-06T02:56:30;10.40;;;6.20;;
29280;SDS011;25048;49.590;11.026;2024-01-06T02:58:58;12.47;;;7.13;;
29280;SDS011;25048;49.590;11.026;2024-01-06T03:01:26;12.47;;;7.37;;
29280;SDS011;25048;49.590;11.026;2024-01-06T03:03:53;15.17;;;6.93;;
29280;SDS011;25048;49.590;11.026;2024-01-06T03:06:23;14.97;;;6.97;;
29280;SDS011;25048;49.590;11.026;2024-01-06T03:08:50;11.27;;;6.30;;
29280;SDS011;25048;49.590;11.026;2024-01-06T03:11:18;11.90;;;6.20;;
29280;SDS011;25048;49.590;11.026;2024-01-06T03:13:45;11.53;;;6.37;;
29280;SDS011;25048;49.590;11.026;2024-01-06T03:16:13;11.90;;;6.30;;
29280;SDS011;25048;49.590;11.026;2024-01-06T03:18:42;10.83;;;6.17;;
29280;SDS011;25048;49.590;11.026;2024-01-06T03:21:28;13.43;;;6.47;;
29280;SDS011;25048;49.590;11.026;2024-01-06T03:23:48;12.23;;;6.53;;
29280;SDS011;25048;49.590;11.026;2024-01-06T03:26:16;12.77;;;6.50;;
29280;SDS011;25048;49.590;11.026;2024-01-06T03:28:44;14.27;;;6.80;;
29280;SDS011;25048;49.590;11.026;2024-01-06T03:31:11;11.20;;;6.87;;
29280;SDS011;25048;49.590;11.026;2024-01-06T03:33:39;15.00;;;7.23;;
29280;SDS011;25048;49.590;11.026;2024-01-06T03:36:08;13.20;;;7.30;;
29280;SDS011;25048;49.590;11.026;2024-01-06T03:38:36;11.30;;;6.70;;
29280;SDS011;25048;49.590;11.026;2024-01-06T03:41:03;12.13;;;6.87;;
29280;SDS011;25048;49.590;11.026;2024-01-06T03:43:31;12.53;;;7.27;;
29280;SDS011;25048;49.590;11.026;2024-01-06T03:45:58;13.60;;;7.33;;
29280;SDS011;25048;49.590;11.026;2024-01-06T03:48:26;13.33;;;6.67;;
29280;SDS011;25048;49.590;11.026;2024-01-06T03:50:55;10.10;;;7.20;;
29280;SDS011;25048;49.590;11.026;2024-01-06T03:53:23;12.37;;;6.90;;
29280;SDS011;25048;49.590;11.026;2024-01-06T03:55:50;12.37;;;6.43;;
29280;SDS011;25048;49.590;11.026;2024-01-06T03:58:18;12.87;;;6.33;;
29280;SDS011;25048;49.590;11.026;2024-01-06T04:00:45;10.40;;;6.00;;
29280;SDS011;25048;49.590;11.026;2024-01-06T04:03:13;11.40;;;6.53;;
29280;SDS011;25048;49.590;11.026;2024-01-06T04:05:40;13.30;;;6.40;;
29280;SDS011;25048;49.590;11.026;2024-01-06T04:08:08;12.87;;;7.53;;
29280;SDS011;25048;49.590;11.026;2024-01-06T04:10:35;13.27;;;7.47;;
29280;SDS011;25048;49.590;11.026;2024-01-06T04:13:03;11.53;;;6.47;;
29280;SDS011;25048;49.590;11.026;2024-01-06T04:15:31;12.63;;;6.60;;
29280;SDS011;25048;49.590;11.026;2024-01-06T04:18:01;11.23;;;6.73;;
29280;SDS011;25048;49.590;11.026;2024-01-06T04:20:32;13.83;;;6.93;;
29280;SDS011;25048;49.590;11.026;2024-01-06T04:22:59;13.33;;;6.43;;
29280;SDS011;25048;49.590;11.026;2024-01-06T04:25:28;12.30;;;6.43;;
29280;SDS011;25048;49.590;11.026;2024-01-06T04:27:56;12.97;;;6.43;;
29280;SDS011;25048;49.590;11.026;2024-01-06T04:30:23;10.30;;;5.93;;
29280;SDS011;25048;49.590;11.026;2024-01-06T04:32:51;9.73;;;6.37;;
29280;SDS011;25048;49.590;11.026;2024-01-06T04:35:19;11.83;;;6.47;;
29280;SDS011;25048;49.590;11.026;2024-01-06T04:37:47;10.33;;;6.20;;
29280;SDS011;25048;49.590;11.026;2024-01-06T04:40:14;14.40;;;6.27;;
29280;SDS011;25048;49.590;11.026;2024-01-06T04:42:42;10.97;;;7.23;;
29280;SDS011;25048;49.590;11.026;2024-01-06T04:45:10;10.63;;;5.97;;
29280;SDS011;25048;49.590;11.026;2024-01-06T04:47:38;10.03;;;5.87;;
29280;SDS011;25048;49.590;11.026;2024-01-06T04:50:05;10.07;;;6.00;;
29280;SDS011;25048;49.590;11.026;2024-01-06T04:52:33;12.97;;;6.17;;
29280;SDS011;25048;49.590;11.026;2024-01-06T04:55:00;10.20;;;6.40;;
29280;SDS011;25048;49.590;11.026;2024-01-06T04:57:28;10.70;;;5.90;;
29280;SDS011;25048;49.590;11.026;2024-01-06T04:59:56;10.43;;;6.03;;
29280;SDS011;25048;49.590;11.026;2024-01-06T05:02:25;11.40;;;6.27;;
29280;SDS011;25048;49.590;11.026;2024-01-06T05:04:55;10.57;;;6.20;;
29280;SDS011;25048;49.590;11.026;2024-01-06T05:07:24;11.40;;;6.50;;
29280;SDS011;25048;49.590;11.026;2024-01-06T05:09:51;9.40;;;5.63;;
29280;SDS011;25048;49.590;11.026;2024-01-06T05:12:19;12.00;;;6.50;;
29280;SDS011;25048;49.590;11.026;2024-01-06T05:14:48;9.87;;;6.03;;
29280;SDS011;25048;49.590;11.026;2024-01-06T05:17:16;11.90;;;5.87;;
29280;SDS011;25048;49.590;11.026;2024-01-06T05:19:43;9.87;;;6.20;;
29280;SDS011;25048;49.590;11.026;2024-01-06T05:22:12;9.43;;;5.90;;
29280;SDS011;25048;49.590;11.026;2024-01-06T05:24:41;11.37;;;6.90;;
29280;SDS011;25048;49.590;11.026;2024-01-06T05:27:08;12.57;;;6.53;;
29280;SDS011;25048;49.590;11.026;2024-01-06T05:29:36;12.73;;;6.20;;
29280;SDS011;25048;49.590;11.026;2024-01-06T05:32:04;13.17;;;6.63;;
29280;SDS011;25048;49.590;11.026;2024-01-06T05:34:31;15.20;;;6.83;;
29280;SDS011;25048;49.590;11.026;2024-01-06T05:36:59;11.87;;;6.93;;
29280;SDS011;25048;49.590;11.026;2024-01-06T05:39:27;11.13;;;6.53;;
29280;SDS011;25048;49.590;11.026;2024-01-06T05:41:54;12.37;;;6.40;;
29280;SDS011;25048;49.590;11.026;2024-01-06T05:44:22;11.23;;;6.57;;
29280;SDS011;25048;49.590;11.026;2024-01-06T05:46:49;10.80;;;6.63;;
29280;SDS011;25048;49.590;11.026;2024-01-06T05:49:19;14.43;;;6.87;;
29280;SDS011;25048;49.590;11.026;2024-01-06T05:51:49;12.57;;;6.67;;
29280;SDS011;25048;49.590;11.026;2024-01-06T05:54:16;12.90;;;6.47;;
29280;SDS011;25048;49.590;11.026;2024-01-06T05:56:45;11.47;;;6.07;;
29280;SDS011;25048;49.590;11.026;2024-01-06T05:59:12;11.50;;;6.40;;
29280;SDS011;25048;49.590;11.026;2024-01-06T06:01:40;13.47;;;6.23;;
29280;SDS011;25048;49.590;11.026;2024-01-06T06:04:10;10.80;;;5.47;;
29280;SDS011;25048;49.590;11.026;2024-01-06T06:06:37;13.00;;;6.23;;
29280;SDS011;25048;49.590;11.026;2024-01-06T06:09:05;14.73;;;7.07;;
29280;SDS011;25048;49.590;11.026;2024-01-06T06:11:33;12.07;;;7.10;;
29280;SDS011;25048;49.590;11.026;2024-01-06T06:14:01;11.07;;;6.53;;
29280;SDS011;25048;49.590;11.026;2024-01-06T06:16:28;12.57;;;6.80;;
29280;SDS011;25048;49.590;11.026;2024-01-06T06:18:56;13.43;;;6.87;;
29280;SDS011;25048;49.590;11.026;2024-01-06T06:21:24;11.33;;;6.80;;
29280;SDS011;25048;49.590;11.026;2024-01-06T06:23:51;11.20;;;6.20;;
29280;SDS011;25048;49.590;11.026;2024-01-06T06:26:19;11.77;;;6.70;;
29280;SDS011;25048;49.590;11.026;2024-01-06T06:28:46;10.30;;;6.53;;
29280;SDS011;25048;49.590;11.026;2024-01-06T06:31:14;12.67;;;6.47;;
29280;SDS011;25048;49.590;11.026;2024-01-06T06:33:41;13.10;;;6.60;;
29280;SDS011;25048;49.590;11.026;2024-01-06T06:36:09;12.17;;;6.20;;
29280;SDS011;25048;49.590;11.026;2024-01-06T06:38:37;11.73;;;7.10;;
29280;SDS011;25048;49.590;11.026;2024-01-06T06:41:04;17.07;;;6.83;;
29280;SDS011;25048;49.590;11.026;2024-01-06T06:43:32;12.40;;;6.57;;
29280;SDS011;25048;49.590;11.026;2024-01-06T06:46:00;11.30;;;6.63;;
29280;SDS011;25048;49.590;11.026;2024-01-06T06:48:28;13.70;;;6.00;;
29280;SDS011;25048;49.590;11.026;2024-01-06T06:50:55;11.80;;;6.90;;
29280;SDS011;25048;49.590;11.026;2024-01-06T06:53:23;10.27;;;6.43;;
29280;SDS011;25048;49.590;11.026;2024-01-06T06:55:50;12.60;;;6.07;;
29280;SDS011;25048;49.590;11.026;2024-01-06T06:58:18;10.53;;;5.60;;
29280;SDS011;25048;49.590;11.026;2024-01-06T07:00:45;11.03;;;6.23;;
29280;SDS011;25048;49.590;11.026;2024-01-06T07:03:13;10.00;;;5.67;;
29280;SDS011;25048;49.590;11.026;2024-01-06T07:05:41;9.97;;;5.63;;
29280;SDS011;25048;49.590;11.026;2024-01-06T07:08:09;10.43;;;5.57;;
29280;SDS011;25048;49.590;11.026;2024-01-06T07:10:36;13.50;;;6.03;;
29280;SDS011;25048;49.590;11.026;2024-01-06T07:13:04;11.73;;;6.53;;
29280;SDS011;25048;49.590;11.026;2024-01-06T07:15:31;13.87;;;6.80;;
29280;SDS011;25048;49.590;11.026;2024-01-06T07:17:59;11.53;;;6.37;;
29280;SDS011;25048;49.590;11.026;2024-01-06T07:20:26;11.13;;;6.17;;
29280;SDS011;25048;49.590;11.026;2024-01-06T07:22:54;11.87;;;6.30;;
29280;SDS011;25048;49.590;11.026;2024-01-06T07:25:21;13.23;;;6.40;;
29280;SDS011;25048;49.590;11.026;2024-01-06T07:27:49;13.67;;;6.63;;
29280;SDS011;25048;49.590;11.026;2024-01-06T07:30:16;9.63;;;6.33;;
29280;SDS011;25048;49.590;11.026;2024-01-06T07:32:44;11.87;;;6.30;;
29280;SDS011;25048;49.590;11.026;2024-01-06T07:35:11;15.17;;;7.17;;
29280;SDS011;25048;49.590;11.026;2024-01-06T07:37:39;11.17;;;6.60;;
29280;SDS011;25048;49.590;11.026;2024-01-06T07:40:07;11.73;;;6.17;;
29280;SDS011;25048;49.590;11.026;2024-01-06T07:42:35;17.10;;;8.13;;
29280;SDS011;25048;49.590;11.026;2024-01-06T07:45:02;15.70;;;7.30;;
29280;SDS011;25048;49.590;11.026;2024-01-06T07:47:30;14.13;;;7.67;;
29280;SDS011;25048;49.590;11.026;2024-01-06T07:49:58;14.27;;;7.67;;
29280;SDS011;25048;49.590;11.026;2024-01-06T07:52:25;13.33;;;7.50;;
29280;SDS011;25048;49.590;11.026;2024-01-06T07:54:53;14.27;;;8.63;;
29280;SDS011;25048;49.590;11.026;2024-01-06T07:57:21;18.60;;;9.10;;
29280;SDS011;25048;49.590;11.026;2024-01-06T07:59:48;20.77;;;9.10;;
29280;SDS011;25048;49.590;11.026;2024-01-06T08:02:16;17.17;;;9.40;;
29280;SDS011;25048;49.590;11.026;2024-01-06T08:04:44;17.60;;;8.20;;
29280;SDS011;25048;49.590;11.026;2024-01-06T08:07:11;17.77;;;8.97;;
29280;SDS011;25048;49.590;11.026;2024-01-06T08:09:39;12.17;;;7.93;;
29280;SDS011;25048;49.590;11.026;2024-01-06T08:12:08;15.03;;;8.07;;
29280;SDS011;25048;49.590;11.026;2024-01-06T08:14:35;16.93;;;8.63;;
29280;SDS011;25048;49.590;11.026;2024-01-06T08:17:03;12.10;;;7.50;;
29280;SDS011;25048;49.590;11.026;2024-01-06T08:19:31;14.13;;;7.77;;
29280;SDS011;25048;49.590;11.026;2024-01-06T08:21:59;14.43;;;8.63;;
29280;SDS011;25048;49.590;11.026;2024-01-06T08:24:26;10.77;;;7.23;;
29280;SDS011;25048;49.590;11.026;2024-01-06T08:26:54;12.80;;;7.70;;
29280;SDS011;25048;49.590;11.026;2024-01-06T08:29:21;13.83;;;7.23;;
29280;SDS011;25048;49.590;11.026;2024-01-06T08:31:49;10.53;;;6.93;;
29280;SDS011;25048;49.590;11.026;2024-01-06T08:34:18;12.63;;;6.87;;
29280;SDS011;25048;49.590;11.026;2024-01-06T08:36:45;13.77;;;6.87;;
29280;SDS011;25048;49.590;11.026;2024-01-06T08:39:13;12.83;;;7.03;;
29280;SDS011;25048;49.590;11.026;2024-01-06T08:41:40;12.10;;;7.23;;
29280;SDS011;25048;49.590;11.026;2024-01-06T08:44:08;12.23;;;7.30;;
29280;SDS011;25048;49.590;11.026;2024-01-06T08:46:35;13.13;;;7.83;;
29280;SDS011;25048;49.590;11.026;2024-01-06T08:49:03;14.47;;;8.27;;
29280;SDS011;25048;49.590;11.026;2024-01-06T08:51:30;16.83;;;8.47;;
29280;SDS011;25048;49.590;11.026;2024-01-06T08:53:58;10.47;;;7.53;;
29280;SDS011;25048;49.590;11.026;2024-01-06T08:56:25;15.60;;;8.00;;
29280;SDS011;25048;49.590;11.026;2024-01-06T08:58:53;13.27;;;8.87;;
29280;SDS011;25048;49.590;11.026;2024-01-06T09:01:22;12.30;;;7.83;;
29280;SDS011;25048;49.590;11.026;2024-01-06T09:03:50;19.30;;;10.43;;
29280;SDS011;25048;49.590;11.026;2024-01-06T09:06:17;15.43;;;9.80;;
29280;SDS011;25048;49.590;11.026;2024-01-06T09:08:45;21.43;;;10.50;;
29280;SDS011;25048;49.590;11.026;2024-01-06T09:11:12;16.10;;;10.30;;
29280;SDS011;25048;49.590;11.026;2024-01-06T09:13:41;19.27;;;10.97;;
29280;SDS011;25048;49.590;11.026;2024-01-06T09:16:08;20.17;;;10.00;;
29280;SDS011;25048;49.590;11.026;2024-01-06T09:18:36;17.93;;;10.43;;
29280;SDS011;25048;49.590;11.026;2024-01-06T09:21:04;15.90;;;9.10;;
29280;SDS011;25048;49.590;11.026;2024-01-06T09:23:31;15.43;;;9.53;;
29280;SDS011;25048;49.590;11.026;2024-01-06T09:25:58;12.37;;;7.97;;
29280;SDS011;25048;49.590;11.026;2024-01-06T09:28:26;15.53;;;8.80;;
29280;SDS011;25048;49.590;11.026;2024-01-06T09:30:54;13.83;;;8.07;;
29280;SDS011;25048;49.590;11.026;2024-01-06T09:33:22;13.83;;;8.13;;
29280;SDS011;25048;49.590;11.026;2024-01-06T09:35:49;11.70;;;6.60;;
29280;SDS011;25048;49.590;11.026;2024-01-06T09:38:17;13.70;;;7.73;;
29280;SDS011;25048;49.590;11.026;2024-01-06T09:40:45;15.77;;;8.87;;
29280;SDS011;25048;49.590;11.026;2024-01-06T09:43:14;17.47;;;9.13;;
29280;SDS011;25048;49.590;11.026;2024-01-06T09:45:42;14.17;;;8.70;;
29280;SDS011;25048;49.590;11.026;2024-01-06T09:48:12;17.77;;;8.60;;
29280;SDS011;25048;49.590;11.026;2024-01-06T09:50:40;16.80;;;8.70;;
29280;SDS011;25048;49.590;11.026;2024-01-06T09:53:13;15.47;;;8.10;;
29280;SDS011;25048;49.590;11.026;2024-01-06T09:55:41;18.33;;;7.87;;
29280;SDS011;25048;49.590;11.026;2024-01-06T09:58:10;19.07;;;8.27;;
29280;SDS011;25048;49.590;11.026;2024-01-06T10:00:37;12.03;;;7.70;;
29280;SDS011;25048;49.590;11.026;2024-01-06T10:03:05;16.47;;;7.27;;
29280;SDS011;25048;49.590;11.026;2024-01-06T10:05:33;10.73;;;6.73;;
29280;SDS011;25048;49.590;11.026;2024-01-06T10:08:02;15.73;;;7.90;;
29280;SDS011;25048;49.590;11.026;2024-01-06T10:10:30;14.63;;;7.20;;
29280;SDS011;25048;49.590;11.026;2024-01-06T10:12:59;16.80;;;7.33;;
29280;SDS011;25048;49.590;11.026;2024-01-06T10:15:27;14.10;;;8.17;;
29280;SDS011;25048;49.590;11.026;2024-01-06T10:17:54;11.97;;;7.07;;
29280;SDS011;25048;49.590;11.026;2024-01-06T10:20:22;10.80;;;6.03;;
29280;SDS011;25048;49.590;11.026;2024-01-06T10:22:50;11.00;;;6.53;;
29280;SDS011;25048;49.590;11.026;2024-01-06T10:25:21;11.83;;;6.30;;
29280;SDS011;25048;49.590;11.026;2024-01-06T10:27:52;8.43;;;5.43;;
29280;SDS011;25048;49.590;11.026;2024-01-06T10:30:20;13.10;;;5.63;;
29280;SDS011;25048;49.590;11.026;2024-01-06T10:32:47;12.57;;;6.47;;
29280;SDS011;25048;49.590;11.026;2024-01-06T10:35:16;9.63;;;5.53;;
29280;SDS011;25048;49.590;11.026;2024-01-06T10:37:45;9.60;;;5.73;;
29280;SDS011;25048;49.590;11.026;2024-01-06T10:40:15;7.63;;;5.47;;
29280;SDS011;25048;49.590;11.026;2024-01-06T10:42:43;9.27;;;5.20;;
29280;SDS011;25048;49.590;11.026;2024-01-06T10:45:12;10.03;;;5.43;;
29280;SDS011;25048;49.590;11.026;2024-01-06T10:47:42;10.10;;;5.47;;
29280;SDS011;25048;49.590;11.026;2024-01-06T10:50:10;14.93;;;5.90;;
29280;SDS011;25048;49.590;11.026;2024-01-06T10:52:39;18.40;;;6.60;;
29280;SDS011;25048;49.590;11.026;2024-01-06T10:55:07;16.53;;;6.70;;
29280;SDS011;25048;49.590;11.026;2024-01-06T10:57:37;12.80;;;6.30;;
29280;SDS011;25048;49.590;11.026;2024-01-06T11:00:06;12.17;;;6.40;;
29280;SDS011;25048;49.590;11.026;2024-01-06T11:02:35;15.03;;;6.07;;
29280;SDS011;25048;49.590;11.026;2024-01-06T11:05:04;11.17;;;5.57;;
29280;SDS011;25048;49.590;11.026;2024-01-06T11:07:36;10.00;;;5.10;;
29280;SDS011;25048;49.590;11.026;2024-01-06T11:10:07;9.03;;;5.63;;
29280;SDS011;25048;49.590;11.026;2024-01-06T11:12:43;13.80;;;5.93;;
29280;SDS011;25048;49.590;11.026;2024-01-06T11:15:35;10.87;;;6.27;;
29280;SDS011;25048;49.590;11.026;2024-01-06T11:17:52;10.67;;;5.63;;
29280;SDS011;25048;49.590;11.026;2024-01-06T11:20:22;12.53;;;5.57;;
29280;SDS011;25048;49.590;11.026;2024-01-06T11:22:52;8.03;;;5.17;;
29280;SDS011;25048;49.590;11.026;2024-01-06T11:25:20;14.03;;;5.37;;
29280;SDS011;25048;49.590;11.026;2024-01-06T11:27:49;10.73;;;5.50;;
29280;SDS011;25048;49.590;11.026;2024-01-06T11:30:24;10.63;;;5.60;;
29280;SDS011;25048;49.590;11.026;2024-01-06T11:32:55;10.27;;;5.47;;
29280;SDS011;25048;49.590;11.026;2024-01-06T11:35:25;10.07;;;5.07;;
29280;SDS011;25048;49.590;11.026;2024-01-06T11:37:58;11.13;;;5.27;;
29280;SDS011;25048;49.590;11.026;2024-01-06T11:40:33;9.90;;;5.70;;
29280;SDS011;25048;49.590;11.026;2024-01-06T11:43:03;11.27;;;6.30;;
29280;SDS011;25048;49.590;11.026;2024-01-06T11:45:33;10.03;;;5.43;;
29280;SDS011;25048;49.590;11.026;2024-01-06T11:48:02;9.30;;;5.37;;
29280;SDS011;25048;49.590;11.026;2024-01-06T11:50:32;11.20;;;5.50;;
29280;SDS011;25048;49.590;11.026;2024-01-06T11:53:01;11.87;;;6.10;;
29280;SDS011;25048;49.590;11.026;2024-01-06T11:55:29;10.73;;;5.23;;
29280;SDS011;25048;49.590;11.026;2024-01-06T11:57:58;10.27;;;5.33;;
29280;SDS011;25048;49.590;11.026;2024-01-06T12:00:28;10.50;;;5.37;;
29280;SDS011;25048;49.590;11.026;2024-01-06T12:03:01;10.87;;;5.83;;
29280;SDS011;25048;49.590;11.026;2024-01-06T12:05:25;9.57;;;4.90;;
29280;SDS011;25048;49.590;11.026;2024-01-06T12:07:54;9.40;;;5.00;;
29280;SDS011;25048;49.590;11.026;2024-01-06T12:10:23;12.00;;;5.47;;
29280;SDS011;25048;49.590;11.026;2024-01-06T12:13:01;8.90;;;4.77;;
29280;SDS011;25048;49.590;11.026;2024-01-06T12:15:34;8.97;;;5.30;;
29280;SDS011;25048;49.590;11.026;2024-01-06T12:18:04;8.70;;;5.13;;
29280;SDS011;25048;49.590;11.026;2024-01-06T12:20:33;10.70;;;5.03;;
29280;SDS011;25048;49.590;11.026;2024-01-06T12:23:00;11.03;;;6.03;;
29280;SDS011;25048;49.590;11.026;2024-01-06T12:25:30;13.70;;;6.37;;
29280;SDS011;25048;49.590;11.026;2024-01-06T12:28:00;10.93;;;5.83;;
29280;SDS011;25048;49.590;11.026;2024-01-06T12:30:28;9.87;;;5.97;;
29280;SDS011;25048;49.590;11.026;2024-01-06T12:32:57;10.00;;;5.50;;
29280;SDS011;25048;49.590;11.026;2024-01-06T12:35:24;10.73;;;6.07;;
29280;SDS011;25048;49.590;11.026;2024-01-06T12:37:52;12.13;;;5.73;;
29280;SDS011;25048;49.590;11.026;2024-01-06T12:40:19;15.47;;;5.47;;
29280;SDS011;25048;49.590;11.026;2024-01-06T12:42:48;11.60;;;5.53;;
29280;SDS011;25048;49.590;11.026;2024-01-06T12:45:15;11.73;;;6.27;;
29280;SDS011;25048;49.590;11.026;2024-01-06T12:47:43;9.07;;;5.57;;
29280;SDS011;25048;49.590;11.026;2024-01-06T12:50:10;9.77;;;5.33;;
29280;SDS011;25048;49.590;11.026;2024-01-06T12:52:38;9.23;;;5.03;;
29280;SDS011;25048;49.590;11.026;2024-01-06T12:55:07;9.20;;;5.60;;
29280;SDS011;25048;49.590;11.026;2024-01-06T12:57:35;12.07;;;5.20;;
29280;SDS011;25048;49.590;11.026;2024-01-06T13:00:02;9.47;;;5.43;;
29280;SDS011;25048;49.590;11.026;2024-01-06T13:02:32;12.60;;;5.20;;
29280;SDS011;25048;49.590;11.026;2024-01-06T13:05:00;11.07;;;5.70;;
29280;SDS011;25048;49.590;11.026;2024-01-06T13:07:27;9.17;;;5.80;;
29280;SDS011;25048;49.590;11.026;2024-01-06T13:09:55;12.10;;;5.83;;
29280;SDS011;25048;49.590;11.026;2024-01-06T13:12:22;11.63;;;5.60;;
29280;SDS011;25048;49.590;11.026;2024-01-06T13:14:50;8.27;;;5.17;;
29280;SDS011;25048;49.590;11.026;2024-01-06T13:17:18;10.77;;;5.80;;
29280;SDS011;25048;49.590;11.026;2024-01-06T13:19:45;9.73;;;5.07;;
29280;SDS011;25048;49.590;11.026;2024-01-06T13:22:13;9.27;;;5.37;;
29280;SDS011;25048;49.590;11.026;2024-01-06T13:24:41;10.13;;;5.27;;
29280;SDS011;25048;49.590;11.026;2024-01-06T13:27:09;7.10;;;4.80;;
29280;SDS011;25048;49.590;11.026;2024-01-06T13:29:36;9.30;;;5.60;;
29280;SDS011;25048;49.590;11.026;2024-01-06T13:32:04;9.07;;;5.53;;
29280;SDS011;25048;49.590;11.026;2024-01-06T13:34:32;11.40;;;5.67;;
29280;SDS011;25048;49.590;11.026;2024-01-06T13:36:59;7.43;;;4.70;;
29280;SDS011;25048;49.590;11.026;2024-01-06T13:39:27;10.83;;;6.03;;
29280;SDS011;25048;49.590;11.026;2024-01-06T13:41:54;7.13;;;4.80;;
29280;SDS011;25048;49.590;11.026;2024-01-06T13:44:22;12.83;;;5.43;;
29280;SDS011;25048;49.590;11.026;2024-01-06T13:46:49;7.17;;;4.70;;
29280;SDS011;25048;49.590;11.026;2024-01-06T13:49:17;8.03;;;5.33;;
29280;SDS011;25048;49.590;11.026;2024-01-06T13:51:45;9.27;;;5.43;;
29280;SDS011;25048;49.590;11.026;2024-01-06T13:54:12;8.57;;;5.00;;
29280;SDS011;25048;49.590;11.026;2024-01-06T13:56:40;9.97;;;4.90;;
29280;SDS011;25048;49.590;11.026;2024-01-06T13:59:08;7.43;;;4.13;;
29280;SDS011;25048;49.590;11.026;2024-01-06T14:01:35;10.23;;;5.07;;
29280;SDS011;25048;49.590;11.026;2024-01-06T14:04:03;7.47;;;4.50;;
29280;SDS011;25048;49.590;11.026;2024-01-06T14:06:31;7.40;;;4.87;;
29280;SDS011;25048;49.590;11.026;2024-01-06T14:08:59;10.13;;;5.47;;
29280;SDS011;25048;49.590;11.026;2024-01-06T14:11:27;10.10;;;4.87;;
29280;SDS011;25048;49.590;11.026;2024-01-06T14:13:57;9.10;;;4.90;;
29280;SDS011;25048;49.590;11.026;2024-01-06T14:16:24;6.53;;;4.57;;
29280;SDS011;25048;49.590;11.026;2024-01-06T14:18:52;8.57;;;4.10;;
29280;SDS011;25048;49.590;11.026;2024-01-06T14:21:20;7.57;;;4.90;;
29280;SDS011;25048;49.590;11.026;2024-01-06T14:23:48;8.77;;;5.03;;
29280;SDS011;25048;49.590;11.026;2024-01-06T14:26:16;8.87;;;5.43;;
29280;SDS011;25048;49.590;11.026;2024-01-06T14:28:47;6.57;;;4.20;;